Time;durP1;ratioP1;P1;durP2;ratioP2;P2;SDS_P1;SDS_P2;PMS_P1;PMS_P2;Temp;Humidity;BMP_temperature;BMP_pressure;BME280_temperature;BME280_humidity;BME280_pressure;Samples;Min_cycle;Max_cycle;Signal;HPM_P1;HPM_P2
2022/12/06 00:01:13;;;;;;;121.68;114.90;;;4.70;99.90;;;;;;4762323;30;20413;-61
2022/12/06 00:03:40;;;;;;;124.50;117.68;;;4.70;99.90;;;;;;4762722;30;20830;-62
2022/12/06 00:06:09;;;;;;;126.23;119.33;;;4.70;99.90;;;;;;4763622;30;20405;-61
2022/12/06 00:08:35;;;;;;;122.53;115.75;;;4.70;99.90;;;;;;4763676;30;20408;-61
2022/12/06 00:11:07;;;;;;;128.40;121.38;;;4.70;99.90;;;;;;4778924;30;20435;-61
2022/12/06 00:13:33;;;;;;;127.72;120.85;;;4.70;99.90;;;;;;4763606;30;20821;-61
2022/12/06 00:16:08;;;;;;;128.77;121.73;;;4.80;99.90;;;;;;4779172;30;20424;-61
2022/12/06 00:18:35;;;;;;;132.70;125.53;;;4.80;99.90;;;;;;4765211;30;20558;-61
2022/12/06 00:21:14;;;;;;;126.65;119.78;;;4.80;99.90;;;;;;4764085;30;20551;-61
2022/12/06 00:23:45;;;;;;;126.70;119.68;;;4.80;99.90;;;;;;4777406;30;20425;-61
2022/12/06 00:26:11;;;;;;;129.73;122.55;;;4.70;99.90;;;;;;4778702;30;20401;-61
2022/12/06 00:28:38;;;;;;;126.07;119.05;;;4.80;99.90;;;;;;4762063;30;20409;-61
2022/12/06 00:31:07;;;;;;;138.48;130.77;;;4.80;99.90;;;;;;4762020;30;20401;-61
2022/12/06 00:33:35;;;;;;;129.43;122.45;;;4.70;99.90;;;;;;4759839;30;20517;-62
2022/12/06 00:36:04;;;;;;;134.65;127.43;;;4.80;99.90;;;;;;4775402;30;20897;-61
2022/12/06 00:38:30;;;;;;;132.50;125.40;;;4.80;99.90;;;;;;4763270;30;20616;-61
2022/12/06 00:41:02;;;;;;;135.52;128.25;;;4.90;99.90;;;;;;4766903;30;20882;-62
2022/12/06 00:43:28;;;;;;;125.68;118.93;;;5.00;99.90;;;;;;4766429;30;20435;-61
2022/12/06 00:45:54;;;;;;;139.35;131.85;;;4.90;99.90;;;;;;4765355;30;20401;-62
2022/12/06 00:48:20;;;;;;;142.68;135.18;;;5.00;99.90;;;;;;4766688;30;20436;-62
2022/12/06 00:50:46;;;;;;;142.67;135.10;;;5.00;99.90;;;;;;4765934;30;20507;-62
2022/12/06 00:53:11;;;;;;;141.33;133.83;;;5.00;99.90;;;;;;4765469;30;20424;-61
2022/12/06 00:55:37;;;;;;;133.53;126.33;;;5.00;99.90;;;;;;4766874;30;20830;-61
2022/12/06 00:58:03;;;;;;;137.05;129.65;;;5.00;99.90;;;;;;4767062;29;20468;-61
2022/12/06 01:00:29;;;;;;;140.10;132.73;;;5.00;99.90;;;;;;4768638;30;20421;-61
2022/12/06 01:02:56;;;;;;;143.43;135.85;;;5.00;99.90;;;;;;4783460;30;20584;-62
2022/12/06 01:05:22;;;;;;;145.23;137.52;;;5.00;99.90;;;;;;4785036;30;20409;-61
2022/12/06 01:07:48;;;;;;;152.55;144.38;;;5.00;99.90;;;;;;4768429;30;20498;-61
2022/12/06 01:10:14;;;;;;;137.52;130.23;;;4.90;99.90;;;;;;4784233;30;20718;-61
2022/12/06 01:12:39;;;;;;;153.80;145.73;;;4.90;99.90;;;;;;4769200;30;20496;-62
2022/12/06 01:15:05;;;;;;;146.50;138.70;;;4.90;99.90;;;;;;4768963;30;20405;-61
2022/12/06 01:17:32;;;;;;;155.38;147.23;;;5.00;99.90;;;;;;4767642;30;20656;-61
2022/12/06 01:19:58;;;;;;;147.70;140.02;;;5.00;99.90;;;;;;4768521;30;20526;-62
2022/12/06 01:22:24;;;;;;;161.00;152.57;;;5.10;99.90;;;;;;4767219;30;20421;-61
2022/12/06 01:24:50;;;;;;;157.20;148.88;;;5.10;99.90;;;;;;4781475;30;20457;-61
2022/12/06 01:27:16;;;;;;;163.25;154.73;;;5.10;99.90;;;;;;4781295;30;20689;-61
2022/12/06 01:29:41;;;;;;;152.43;144.50;;;5.10;99.90;;;;;;4782136;30;20409;-61
2022/12/06 01:32:07;;;;;;;161.25;152.82;;;5.10;99.90;;;;;;4766795;30;20830;-61
2022/12/06 01:34:33;;;;;;;155.02;146.93;;;5.20;99.90;;;;;;4769754;30;20428;-62
2022/12/06 01:36:58;;;;;;;146.85;139.13;;;5.20;99.90;;;;;;4771243;30;20435;-61
2022/12/06 01:39:24;;;;;;;152.30;144.23;;;5.10;99.90;;;;;;4770546;30;20838;-61
2022/12/06 01:41:50;;;;;;;162.70;154.23;;;5.20;99.90;;;;;;4773174;30;20489;-61
2022/12/06 01:44:37;;;;;;;149.67;141.97;;;5.20;99.90;;;;;;4789897;30;20976;-61
2022/12/06 01:47:03;;;;;;;157.70;149.50;;;5.30;99.90;;;;;;4789667;30;20717;-60
2022/12/06 01:49:34;;;;;;;162.32;153.80;;;5.30;99.90;;;;;;4773293;30;20417;-61
2022/12/06 01:52:06;;;;;;;155.73;147.67;;;5.20;99.90;;;;;;4773790;30;20652;-61
2022/12/06 01:54:32;;;;;;;161.38;153.05;;;5.20;99.90;;;;;;4788065;30;20415;-61
2022/12/06 01:57:00;;;;;;;156.00;148.02;;;5.20;99.90;;;;;;4772928;30;20577;-62
2022/12/06 01:59:27;;;;;;;163.00;154.50;;;5.20;99.90;;;;;;4769411;30;20439;-62
2022/12/06 02:01:53;;;;;;;143.43;136.02;;;5.20;99.90;;;;;;4755050;30;20437;-61
2022/12/06 02:04:21;;;;;;;149.33;141.53;;;5.20;99.90;;;;;;4754194;30;20431;-62
2022/12/06 02:06:47;;;;;;;160.10;151.75;;;5.20;99.90;;;;;;4754564;30;20721;-62
2022/12/06 02:09:15;;;;;;;151.40;143.40;;;5.20;99.90;;;;;;4769597;30;20500;-62
2022/12/06 02:11:42;;;;;;;145.50;138.00;;;5.20;99.90;;;;;;4753341;30;20399;-62
2022/12/06 02:14:16;;;;;;;158.57;150.38;;;5.20;99.90;;;;;;4768204;30;20438;-62
2022/12/06 02:17:19;;;;;;;169.88;161.05;;;5.20;99.90;;;;;;4767633;30;20695;-61
2022/12/06 02:20:19;;;;;;;158.10;150.00;;;5.20;99.90;;;;;;4752041;30;20447;-62
2022/12/06 02:23:05;;;;;;;152.33;144.37;;;5.20;99.90;;;;;;4767854;30;20720;-61
2022/12/06 02:26:07;;;;;;;169.20;160.57;;;5.30;99.90;;;;;;4769160;30;20525;-61
2022/12/06 02:28:51;;;;;;;169.50;160.82;;;5.30;99.90;;;;;;4753573;30;20414;-61
2022/12/06 02:31:40;;;;;;;166.15;157.65;;;5.30;99.90;;;;;;4753638;30;20421;-62
2022/12/06 02:34:17;;;;;;;161.35;153.13;;;5.30;99.90;;;;;;4769591;30;20427;-61
2022/12/06 02:36:49;;;;;;;163.50;155.05;;;5.30;99.90;;;;;;4755306;30;20414;-61
2022/12/06 02:39:25;;;;;;;162.20;153.82;;;5.30;99.90;;;;;;4770165;30;20764;-62
2022/12/06 02:42:00;;;;;;;148.80;141.20;;;5.30;99.90;;;;;;4755825;30;20406;-62
2022/12/06 02:44:41;;;;;;;160.97;152.80;;;5.40;99.90;;;;;;4770817;30;20524;-62
2022/12/06 02:47:10;;;;;;;156.68;148.60;;;5.40;99.90;;;;;;4754815;30;20812;-62
2022/12/06 02:49:43;;;;;;;165.50;157.00;;;5.40;99.90;;;;;;4771735;30;20486;-61
2022/12/06 02:52:12;;;;;;;164.25;155.95;;;5.40;99.90;;;;;;4754595;30;20587;-61
2022/12/06 02:54:39;;;;;;;163.23;154.98;;;5.40;99.90;;;;;;4768076;30;20691;-62
2022/12/06 02:57:04;;;;;;;149.80;142.15;;;5.40;99.90;;;;;;4753895;30;20446;-62
2022/12/06 02:59:30;;;;;;;165.95;157.50;;;5.40;99.90;;;;;;4766508;30;20475;-62
2022/12/06 03:02:00;;;;;;;166.48;158.07;;;5.40;99.90;;;;;;4771273;30;20409;-61
2022/12/06 03:04:55;;;;;;;165.63;157.25;;;5.40;99.90;;;;;;4771436;30;20433;-62
2022/12/06 03:07:28;;;;;;;168.43;159.82;;;5.40;99.90;;;;;;4773447;30;20408;-61
2022/12/06 03:10:26;;;;;;;170.73;162.05;;;5.40;99.90;;;;;;4787523;30;20734;-61
2022/12/06 03:13:04;;;;;;;178.98;169.98;;;5.40;99.90;;;;;;4771221;30;20416;-62
2022/12/06 03:15:52;;;;;;;165.27;156.95;;;5.40;99.90;;;;;;4771230;30;20814;-62
2022/12/06 03:18:37;;;;;;;173.97;165.30;;;5.50;99.90;;;;;;4770983;30;20503;-62
2022/12/06 03:21:09;;;;;;;173.18;164.52;;;5.50;99.90;;;;;;4770341;30;20710;-61
2022/12/06 03:23:47;;;;;;;180.10;171.05;;;5.50;99.90;;;;;;4770373;30;20516;-62
2022/12/06 03:26:20;;;;;;;178.48;169.50;;;5.50;99.90;;;;;;4771046;30;20413;-62
2022/12/06 03:28:49;;;;;;;174.02;165.32;;;5.50;99.90;;;;;;4772570;30;20811;-62
2022/12/06 03:31:15;;;;;;;177.70;168.98;;;5.50;99.90;;;;;;4772646;30;20412;-62
2022/12/06 03:33:48;;;;;;;177.27;168.40;;;5.50;99.90;;;;;;4772574;30;20436;-61
2022/12/06 03:36:16;;;;;;;183.27;174.07;;;5.50;99.90;;;;;;4786793;30;20474;-63
2022/12/06 03:38:52;;;;;;;182.45;173.38;;;5.50;99.90;;;;;;4772014;30;20695;-62
2022/12/06 03:41:20;;;;;;;173.13;164.50;;;5.60;99.90;;;;;;4786975;30;20416;-62
2022/12/06 03:43:46;;;;;;;172.00;163.38;;;5.60;99.90;;;;;;4771816;30;20470;-62
2022/12/06 03:46:19;;;;;;;184.15;175.05;;;5.60;99.90;;;;;;4771926;30;20401;-62
2022/12/06 03:49:15;;;;;;;173.88;165.27;;;5.60;99.90;;;;;;4769502;30;20432;-63
2022/12/06 03:51:42;;;;;;;189.20;179.88;;;5.60;99.90;;;;;;4781129;30;20409;-62
2022/12/06 03:54:08;;;;;;;179.15;170.27;;;5.60;99.90;;;;;;4769655;30;20416;-62
2022/12/06 03:56:36;;;;;;;189.98;180.60;;;5.60;99.90;;;;;;4785423;29;20412;-62
2022/12/06 03:59:03;;;;;;;170.48;162.10;;;5.60;99.90;;;;;;4786123;30;20524;-62
2022/12/06 04:01:29;;;;;;;179.82;170.88;;;5.50;99.90;;;;;;4784023;30;20622;-62
2022/12/06 04:03:55;;;;;;;195.10;185.48;;;5.50;99.90;;;;;;4768783;30;20449;-62
2022/12/06 04:06:20;;;;;;;203.47;193.43;;;5.50;99.90;;;;;;4768831;30;20668;-62
2022/12/06 04:08:46;;;;;;;201.70;191.68;;;5.50;99.90;;;;;;4784527;30;20460;-62
2022/12/06 04:11:12;;;;;;;211.13;200.63;;;5.50;99.90;;;;;;4769523;30;20693;-62
2022/12/06 04:13:38;;;;;;;208.27;198.00;;;5.50;99.90;;;;;;4768067;30;20413;-62
2022/12/06 04:18:09;;;;;;;208.43;198.15;;;5.50;99.90;;;;;;4784548;30;20752;-62
2022/12/06 04:18:49;;;;;;;208.25;197.93;;;5.60;99.90;;;;;;4785086;30;20529;-62
2022/12/06 04:23:56;;;;;;;211.17;200.77;;;5.60;99.90;;;;;;4785618;30;20527;-61
2022/12/06 04:26:22;;;;;;;210.23;199.77;;;5.60;99.90;;;;;;4784941;30;20781;-61
2022/12/06 04:39:47;;;;;;;211.40;200.98;;;5.60;99.90;;;;;;4784516;30;20464;-61
2022/12/06 04:44:57;;;;;;;202.80;192.82;;;5.60;99.90;;;;;;4786217;30;20432;-61
2022/12/06 04:47:23;;;;;;;214.93;204.30;;;5.60;99.90;;;;;;4786349;30;20401;-61
2022/12/06 04:49:49;;;;;;;210.75;200.25;;;5.70;99.90;;;;;;4769702;30;20462;-62
2022/12/06 04:52:16;;;;;;;203.60;193.55;;;5.70;99.90;;;;;;4769772;30;20711;-62
2022/12/06 04:54:41;;;;;;;208.68;198.40;;;5.60;99.90;;;;;;4784858;30;20417;-62
2022/12/06 04:57:11;;;;;;;209.17;198.70;;;5.60;99.90;;;;;;4783645;30;20415;-61
2022/12/06 04:59:38;;;;;;;223.93;212.95;;;5.60;99.90;;;;;;4767264;30;20433;-62
2022/12/06 05:02:05;;;;;;;217.50;206.80;;;5.60;99.90;;;;;;4781025;30;20546;-61
2022/12/06 05:04:32;;;;;;;212.85;202.40;;;5.60;99.90;;;;;;4765174;30;20445;-61
2022/12/06 05:06:57;;;;;;;214.32;203.73;;;5.60;99.90;;;;;;4781594;30;20807;-61
2022/12/06 05:09:23;;;;;;;212.43;201.93;;;5.60;99.90;;;;;;4769474;30;20417;-61
2022/12/06 05:11:49;;;;;;;219.07;208.38;;;5.60;99.90;;;;;;4785841;30;20413;-61
2022/12/06 05:14:15;;;;;;;197.57;187.90;;;5.70;99.90;;;;;;4771756;30;20664;-61
2022/12/06 05:16:41;;;;;;;220.52;209.60;;;5.60;99.90;;;;;;4771288;30;20689;-62
2022/12/06 05:19:07;;;;;;;213.52;203.07;;;5.60;99.90;;;;;;4770688;30;20700;-62
2022/12/06 05:21:33;;;;;;;210.00;199.70;;;5.60;99.90;;;;;;4787020;30;20417;-62
2022/12/06 05:23:58;;;;;;;209.73;199.27;;;5.60;99.90;;;;;;4770930;30;20429;-62
2022/12/06 05:26:27;;;;;;;206.88;196.70;;;5.60;99.90;;;;;;4769120;30;20424;-61
2022/12/06 05:28:54;;;;;;;200.30;190.27;;;5.60;99.90;;;;;;4769342;30;20478;-62
2022/12/06 05:31:20;;;;;;;196.50;186.80;;;5.50;99.90;;;;;;4769277;30;20408;-61
2022/12/06 05:33:47;;;;;;;210.13;199.93;;;5.60;99.90;;;;;;4768219;30;20429;-61
2022/12/06 05:36:17;;;;;;;207.32;196.95;;;5.60;99.90;;;;;;4783460;30;20405;-61
2022/12/06 05:38:44;;;;;;;208.57;198.30;;;5.60;99.90;;;;;;4783732;30;20419;-61
2022/12/06 05:41:10;;;;;;;215.93;205.00;;;5.60;99.90;;;;;;4769111;30;20424;-61
2022/12/06 05:43:36;;;;;;;212.47;201.90;;;5.60;99.90;;;;;;4786019;30;20451;-61
2022/12/06 05:46:02;;;;;;;216.23;205.57;;;5.50;99.90;;;;;;4784122;30;20421;-61
2022/12/06 05:48:28;;;;;;;216.15;205.68;;;5.50;99.90;;;;;;4768387;30;20868;-61
2022/12/06 05:50:53;;;;;;;213.50;202.90;;;5.60;99.90;;;;;;4784271;30;20408;-60
2022/12/06 05:53:20;;;;;;;207.13;196.75;;;5.60;99.90;;;;;;4783128;30;20926;-62
2022/12/06 05:55:46;;;;;;;201.57;191.57;;;5.60;99.90;;;;;;4769013;30;20458;-62
2022/12/06 05:58:12;;;;;;;200.82;190.75;;;5.60;99.90;;;;;;4780481;30;20438;-62
2022/12/06 06:00:38;;;;;;;211.10;200.60;;;5.60;99.90;;;;;;4766101;30;20477;-61
2022/12/06 06:03:05;;;;;;;215.05;204.40;;;5.50;99.90;;;;;;4748596;30;20438;-62
2022/12/06 06:05:31;;;;;;;213.85;203.23;;;5.60;99.90;;;;;;4762589;30;20411;-62
2022/12/06 06:07:57;;;;;;;207.90;197.55;;;5.60;99.90;;;;;;4745524;30;20401;-61
2022/12/06 06:10:23;;;;;;;222.63;211.52;;;5.50;99.90;;;;;;4760830;30;20667;-61
2022/12/06 06:12:49;;;;;;;232.50;220.98;;;5.50;99.90;;;;;;4748821;30;20525;-62
2022/12/06 06:15:16;;;;;;;225.88;214.77;;;5.50;99.90;;;;;;4746005;30;20917;-62
2022/12/06 06:17:42;;;;;;;227.18;216.07;;;5.50;99.90;;;;;;4745150;30;20421;-62
2022/12/06 06:20:12;;;;;;;233.88;222.52;;;5.50;99.90;;;;;;4745252;30;20616;-62
2022/12/06 06:22:40;;;;;;;232.37;221.13;;;5.50;99.90;;;;;;4762581;30;20414;-62
2022/12/06 06:25:07;;;;;;;246.82;234.73;;;5.50;99.90;;;;;;4762922;30;20541;-62
2022/12/06 06:27:35;;;;;;;256.75;244.10;;;5.50;99.90;;;;;;4764317;30;20399;-62
2022/12/06 06:30:04;;;;;;;223.23;212.32;;;5.50;99.90;;;;;;4763776;30;20411;-62
2022/12/06 06:32:30;;;;;;;227.15;216.05;;;5.50;99.90;;;;;;4763736;30;20755;-62
2022/12/06 06:34:56;;;;;;;237.20;225.60;;;5.60;99.90;;;;;;4746775;30;20735;-62
2022/12/06 06:37:21;;;;;;;222.77;212.00;;;5.50;99.90;;;;;;4751606;30;20770;-62
2022/12/06 06:39:47;;;;;;;234.15;222.65;;;5.50;99.90;;;;;;4756087;30;20415;-62
2022/12/06 06:42:12;;;;;;;237.82;226.20;;;5.50;99.90;;;;;;4744662;30;20426;-61
2022/12/06 06:44:38;;;;;;;231.40;220.13;;;5.50;99.90;;;;;;4760580;30;20894;-62
2022/12/06 06:47:04;;;;;;;245.40;233.60;;;5.50;99.90;;;;;;4760971;30;20603;-62
2022/12/06 06:49:30;;;;;;;239.85;228.23;;;5.60;99.90;;;;;;4762496;30;20615;-60
2022/12/06 06:51:56;;;;;;;222.23;211.35;;;5.50;99.90;;;;;;4747205;30;20484;-61
2022/12/06 06:54:22;;;;;;;241.02;229.52;;;5.50;99.90;;;;;;4761659;30;20789;-62
2022/12/06 06:56:48;;;;;;;229.52;218.45;;;5.50;99.90;;;;;;4745464;30;20426;-62
2022/12/06 06:59:14;;;;;;;226.45;215.45;;;5.50;99.90;;;;;;4762608;30;20438;-61
2022/12/06 07:01:40;;;;;;;226.98;215.85;;;5.40;99.90;;;;;;4743772;30;20751;-61
2022/12/06 07:04:05;;;;;;;224.02;213.02;;;5.50;99.90;;;;;;4743006;30;20439;-61
2022/12/06 07:06:31;;;;;;;229.77;218.57;;;5.40;99.90;;;;;;4744517;30;20437;-61
2022/12/06 07:08:57;;;;;;;235.45;224.07;;;5.40;99.90;;;;;;4744962;30;20445;-61
2022/12/06 07:11:22;;;;;;;239.63;227.82;;;5.40;99.90;;;;;;4743020;30;20475;-61
2022/12/06 07:13:48;;;;;;;233.13;221.87;;;5.40;99.90;;;;;;4757928;30;20436;-62
2022/12/06 07:16:15;;;;;;;245.57;233.60;;;5.40;99.90;;;;;;4743535;30;20703;-62
2022/12/06 07:18:42;;;;;;;223.20;212.30;;;5.40;99.90;;;;;;4741173;30;20483;-62
2022/12/06 07:21:12;;;;;;;229.32;218.07;;;5.40;99.90;;;;;;4737419;30;20635;-61
2022/12/06 07:23:37;;;;;;;227.30;216.13;;;5.40;99.90;;;;;;4738983;30;20495;-61
2022/12/06 07:26:15;;;;;;;224.40;213.50;;;5.40;99.90;;;;;;4747112;30;20666;-61
2022/12/06 07:28:43;;;;;;;232.20;220.90;;;5.30;99.90;;;;;;4752513;30;20403;-61
2022/12/06 07:31:21;;;;;;;230.13;218.88;;;5.40;99.90;;;;;;4748709;30;20930;-61
2022/12/06 07:33:50;;;;;;;232.63;221.30;;;5.40;99.90;;;;;;4734755;30;20562;-61
2022/12/06 07:36:16;;;;;;;230.02;218.63;;;5.40;99.90;;;;;;4742080;30;20418;-61
2022/12/06 07:38:45;;;;;;;236.30;224.90;;;5.40;99.90;;;;;;4750578;30;20802;-61
2022/12/06 07:46:42;;;;;;;231.13;219.70;;;5.40;99.90;;;;;;4754321;30;20402;-62
2022/12/06 07:49:08;;;;;;;236.67;224.97;;;5.40;99.90;;;;;;4738011;30;20434;-61
2022/12/06 07:51:34;;;;;;;234.32;222.93;;;5.40;99.90;;;;;;4736915;30;20430;-61
2022/12/06 07:54:00;;;;;;;236.98;225.38;;;5.40;99.90;;;;;;4746400;30;20561;-60
2022/12/06 07:56:26;;;;;;;214.68;203.88;;;5.40;99.90;;;;;;4736100;30;20422;-61
2022/12/06 07:58:52;;;;;;;226.27;215.23;;;5.30;99.90;;;;;;4755097;30;20437;-61
2022/12/06 08:01:18;;;;;;;243.30;231.33;;;5.30;99.90;;;;;;4751334;30;20581;-61
2022/12/06 08:03:44;;;;;;;223.20;212.13;;;5.40;99.90;;;;;;4750931;30;20539;-61
2022/12/06 08:06:10;;;;;;;225.70;214.50;;;5.40;99.90;;;;;;4751726;30;20477;-62
2022/12/06 08:08:36;;;;;;;235.10;223.50;;;5.40;99.90;;;;;;4752968;30;20405;-61
2022/12/06 08:11:05;;;;;;;212.60;202.03;;;5.40;99.90;;;;;;4770234;30;20608;-61
2022/12/06 08:13:32;;;;;;;207.25;197.05;;;5.40;99.90;;;;;;4772043;30;20609;-61
2022/12/06 08:15:58;;;;;;;212.20;201.70;;;5.40;99.90;;;;;;4755268;30;20464;-66
2022/12/06 08:18:24;;;;;;;227.50;216.35;;;5.40;99.90;;;;;;4754289;30;20425;-61
2022/12/06 08:20:52;;;;;;;222.73;211.67;;;5.50;99.90;;;;;;4757300;30;20413;-61
2022/12/06 08:23:18;;;;;;;199.02;188.95;;;5.50;99.90;;;;;;4755861;30;20821;-62
2022/12/06 08:25:44;;;;;;;211.90;201.40;;;5.40;99.90;;;;;;4754783;30;20969;-61
2022/12/06 08:28:10;;;;;;;205.48;195.30;;;5.50;99.90;;;;;;4748192;30;20481;-61
2022/12/06 08:30:39;;;;;;;207.38;197.05;;;5.50;99.90;;;;;;4744112;30;20410;-62
2022/12/06 08:33:05;;;;;;;198.88;188.95;;;5.40;99.90;;;;;;4745469;30;20435;-61
2022/12/06 08:35:30;;;;;;;199.47;189.60;;;5.40;99.90;;;;;;4744089;30;20596;-61
2022/12/06 08:37:56;;;;;;;204.02;193.88;;;5.50;99.90;;;;;;4757098;30;20537;-61
2022/12/06 08:40:22;;;;;;;191.82;182.27;;;5.50;99.90;;;;;;4742394;30;20512;-61
2022/12/06 08:42:48;;;;;;;195.20;185.38;;;5.40;99.90;;;;;;4759217;29;20617;-61
2022/12/06 08:45:14;;;;;;;190.25;180.75;;;5.40;99.90;;;;;;4748640;30;20748;-61
2022/12/06 08:47:39;;;;;;;185.10;175.93;;;5.50;99.90;;;;;;4764189;30;20620;-61
2022/12/06 08:50:06;;;;;;;200.52;190.52;;;5.40;99.90;;;;;;4766900;30;20447;-61
2022/12/06 08:52:32;;;;;;;194.20;184.27;;;5.40;99.90;;;;;;4768474;30;20472;-61
2022/12/06 08:54:58;;;;;;;184.88;175.65;;;5.50;99.90;;;;;;4754606;30;20405;-62
2022/12/06 08:57:24;;;;;;;178.30;169.32;;;5.50;99.90;;;;;;4757038;30;20715;-61
2022/12/06 08:59:49;;;;;;;185.75;176.43;;;5.40;99.90;;;;;;4756051;30;20980;-61
2022/12/06 09:02:15;;;;;;;182.85;173.60;;;5.50;99.90;;;;;;4755006;30;20617;-61
2022/12/06 09:04:41;;;;;;;179.97;170.83;;;5.50;99.90;;;;;;4769144;30;20507;-61
2022/12/06 09:07:07;;;;;;;173.32;164.45;;;5.50;99.90;;;;;;4750126;30;20413;-61
2022/12/06 09:09:34;;;;;;;179.35;170.25;;;5.40;99.90;;;;;;4750077;30;20435;-61
2022/12/06 09:11:59;;;;;;;185.98;176.57;;;5.40;99.90;;;;;;4748373;30;20408;-61
2022/12/06 09:14:25;;;;;;;167.33;158.97;;;5.40;99.90;;;;;;4749086;30;20412;-61
2022/12/06 09:16:51;;;;;;;176.77;167.87;;;5.40;99.90;;;;;;4761098;30;20645;-61
2022/12/06 09:19:17;;;;;;;184.40;174.87;;;5.50;99.90;;;;;;4745128;30;20811;-61
2022/12/06 09:21:45;;;;;;;205.18;193.38;;;5.50;99.90;;;;;;4761788;30;20416;-61
2022/12/06 09:24:16;;;;;;;171.40;162.67;;;5.50;99.90;;;;;;4763355;30;20993;-61
2022/12/06 09:26:42;;;;;;;176.23;167.40;;;5.50;99.90;;;;;;4749659;30;20405;-61
2022/12/06 09:29:09;;;;;;;169.38;160.85;;;5.50;99.90;;;;;;4769708;30;20574;-61
2022/12/06 09:31:38;;;;;;;166.10;157.73;;;5.50;99.90;;;;;;4772244;30;20456;-61
2022/12/06 09:34:05;;;;;;;160.75;152.38;;;5.50;99.90;;;;;;4757709;30;20564;-62
2022/12/06 09:36:31;;;;;;;166.45;157.88;;;5.40;99.90;;;;;;4761374;30;20477;-61
2022/12/06 09:39:08;;;;;;;156.25;148.30;;;5.40;99.90;;;;;;4759918;30;20637;-62
2022/12/06 09:42:01;;;;;;;171.85;163.13;;;5.40;99.90;;;;;;4761214;30;20664;-62
2022/12/06 09:44:38;;;;;;;166.55;157.85;;;5.40;99.90;;;;;;4758248;30;20436;-61
2022/12/06 09:47:10;;;;;;;159.75;151.60;;;5.40;99.90;;;;;;4757016;30;20482;-61
2022/12/06 09:49:40;;;;;;;158.20;150.13;;;5.30;99.90;;;;;;4769389;30;20452;-61
2022/12/06 09:52:17;;;;;;;165.27;156.77;;;5.40;99.90;;;;;;4749434;30;20420;-61
2022/12/06 09:54:55;;;;;;;161.80;153.63;;;5.30;99.90;;;;;;4748922;30;21118;-61
2022/12/06 09:57:24;;;;;;;154.18;146.43;;;5.30;99.90;;;;;;4749352;30;20804;-62
2022/12/06 10:00:11;;;;;;;155.38;147.57;;;5.40;99.90;;;;;;4751128;30;20672;-61
2022/12/06 10:03:15;;;;;;;155.47;147.57;;;5.40;99.90;;;;;;4738168;30;20499;-62
2022/12/06 10:06:02;;;;;;;146.68;139.25;;;5.50;99.90;;;;;;4738021;30;20437;-63
2022/12/06 10:08:56;;;;;;;147.88;140.40;;;5.40;99.90;;;;;;4743584;30;20480;-62
2022/12/06 10:11:40;;;;;;;149.48;141.82;;;5.40;99.90;;;;;;4739340;30;20398;-63
2022/12/06 10:14:40;;;;;;;148.52;140.85;;;5.50;99.90;;;;;;4741943;30;20421;-63
2022/12/06 10:17:34;;;;;;;149.68;142.07;;;5.50;99.90;;;;;;4750242;30;20417;-62
2022/12/06 10:20:09;;;;;;;157.80;149.68;;;5.50;99.90;;;;;;4755140;30;20426;-62
2022/12/06 10:22:54;;;;;;;145.37;137.97;;;5.50;99.90;;;;;;4743624;30;20407;-63
2022/12/06 10:25:26;;;;;;;138.80;131.63;;;5.50;99.90;;;;;;4755827;30;20487;-62
2022/12/06 10:28:05;;;;;;;144.13;136.67;;;5.50;99.90;;;;;;4741012;30;20407;-62
2022/12/06 10:30:35;;;;;;;133.25;126.40;;;5.60;99.90;;;;;;4742632;30;20533;-61
2022/12/06 10:33:13;;;;;;;134.20;127.35;;;5.50;99.90;;;;;;4744901;30;20844;-62
2022/12/06 10:35:53;;;;;;;137.48;130.35;;;5.60;99.90;;;;;;4759579;30;20430;-62
2022/12/06 10:38:45;;;;;;;142.60;135.32;;;5.60;99.90;;;;;;4745436;30;20552;-61
2022/12/06 10:41:29;;;;;;;127.82;121.13;;;5.60;99.90;;;;;;4760283;30;20414;-62
2022/12/06 10:44:21;;;;;;;133.10;126.18;;;5.60;99.90;;;;;;4764046;30;20458;-62
2022/12/06 10:47:05;;;;;;;148.93;141.18;;;5.50;99.90;;;;;;4748477;30;20441;-62
2022/12/06 10:49:46;;;;;;;140.80;133.40;;;5.50;99.90;;;;;;4751263;30;20414;-60
2022/12/06 10:52:30;;;;;;;140.90;133.48;;;5.60;99.90;;;;;;4765998;30;20415;-60
2022/12/06 10:55:01;;;;;;;129.63;122.75;;;5.50;99.90;;;;;;4749690;30;20414;-55
2022/12/06 10:57:33;;;;;;;170.32;161.27;;;5.40;99.90;;;;;;4763260;30;20411;-52
2022/12/06 11:00:06;;;;;;;161.68;153.35;;;5.60;99.90;;;;;;4747102;30;20439;-61
2022/12/06 11:02:41;;;;;;;147.10;139.23;;;5.50;99.90;;;;;;4760550;30;20414;-61
2022/12/06 11:05:45;;;;;;;156.53;148.23;;;5.50;99.90;;;;;;4757832;30;20502;-60
2022/12/06 11:08:17;;;;;;;147.55;139.75;;;5.40;99.90;;;;;;4759228;30;20399;-60
2022/12/06 11:10:45;;;;;;;143.77;136.13;;;5.50;99.90;;;;;;4745266;30;20571;-60
2022/12/06 11:13:23;;;;;;;138.85;131.43;;;5.50;99.90;;;;;;4755716;30;20881;-60
2022/12/06 11:16:02;;;;;;;150.27;141.80;;;5.40;99.90;;;;;;4741860;30;20449;-60
2022/12/06 11:18:28;;;;;;;143.55;135.90;;;5.40;99.90;;;;;;4759775;30;20727;-60
2022/12/06 11:21:23;;;;;;;145.80;138.07;;;5.40;99.90;;;;;;4753910;30;20426;-60
2022/12/06 11:24:08;;;;;;;159.60;151.20;;;5.40;99.90;;;;;;4761049;30;20447;-61
2022/12/06 11:26:43;;;;;;;143.75;135.95;;;5.40;99.90;;;;;;4754781;30;20406;-62
2022/12/06 11:29:12;;;;;;;155.80;147.60;;;5.30;99.90;;;;;;4763212;30;20399;-61
2022/12/06 11:31:51;;;;;;;140.25;132.77;;;5.30;99.90;;;;;;4748190;30;20447;-61
2022/12/06 11:34:30;;;;;;;148.40;140.57;;;5.30;99.90;;;;;;4762421;30;20445;-61
2022/12/06 11:36:56;;;;;;;148.07;140.32;;;5.30;99.90;;;;;;4743744;30;20423;-61
2022/12/06 11:39:22;;;;;;;155.63;147.48;;;5.30;99.90;;;;;;4750799;30;21092;-61
2022/12/06 11:41:52;;;;;;;145.55;137.90;;;5.30;99.90;;;;;;4740455;30;20418;-61
2022/12/06 11:44:24;;;;;;;139.32;132.00;;;5.40;99.90;;;;;;4738903;30;20454;-62
2022/12/06 11:46:58;;;;;;;136.68;129.38;;;5.40;99.90;;;;;;4754770;30;20609;-61
2022/12/06 11:49:44;;;;;;;145.15;137.35;;;5.50;99.90;;;;;;4742606;30;20411;-61
2022/12/06 11:52:16;;;;;;;123.28;116.68;;;5.40;99.90;;;;;;4755981;30;21124;-61
2022/12/06 11:55:26;;;;;;;127.50;120.77;;;5.40;99.90;;;;;;4749783;30;20517;-61
2022/12/06 11:58:00;;;;;;;138.43;131.15;;;5.40;99.90;;;;;;4744098;30;20481;-62
2022/12/06 12:00:25;;;;;;;130.15;123.25;;;5.40;99.90;;;;;;4737953;30;20567;-61
2022/12/06 12:02:53;;;;;;;137.23;130.02;;;5.40;99.90;;;;;;4751028;30;20539;-61
2022/12/06 12:05:29;;;;;;;134.02;126.88;;;5.40;99.90;;;;;;4747480;30;20852;-61
2022/12/06 12:08:05;;;;;;;136.68;129.40;;;5.50;99.90;;;;;;4746258;30;20453;-61
2022/12/06 12:10:39;;;;;;;135.90;128.60;;;5.40;99.90;;;;;;4733155;30;20414;-61
2022/12/06 12:15:59;;;;;;;143.23;135.70;;;5.40;99.90;;;;;;4746052;30;20401;-61
2022/12/06 12:18:29;;;;;;;137.18;129.77;;;5.40;99.90;;;;;;4758207;30;20418;-61
2022/12/06 12:20:56;;;;;;;142.27;134.73;;;5.30;99.90;;;;;;4736503;30;20509;-61
2022/12/06 12:23:42;;;;;;;148.07;140.27;;;5.20;99.90;;;;;;4731549;30;20962;-61
2022/12/06 12:26:11;;;;;;;143.30;135.90;;;5.20;99.90;;;;;;4744142;30;20916;-63
2022/12/06 12:28:37;;;;;;;142.53;135.00;;;5.30;99.90;;;;;;4747182;30;20426;-61
2022/12/06 12:31:25;;;;;;;135.02;127.93;;;5.30;99.90;;;;;;4735648;30;20445;-61
2022/12/06 12:34:18;;;;;;;135.30;128.15;;;5.30;99.90;;;;;;4753046;30;20416;-61
2022/12/06 12:37:11;;;;;;;141.18;133.73;;;5.30;99.90;;;;;;4740935;30;20426;-60
2022/12/06 12:39:43;;;;;;;150.55;142.52;;;5.20;99.90;;;;;;4740885;30;20423;-60
2022/12/06 12:42:44;;;;;;;176.27;167.03;;;5.10;99.90;;;;;;4744789;30;20399;-61
2022/12/06 12:45:18;;;;;;;162.82;154.38;;;5.00;99.90;;;;;;4707617;30;20775;-62
2022/12/06 12:48:20;;;;;;;166.95;158.13;;;5.00;99.90;;;;;;4754553;30;20445;-62
2022/12/06 12:50:54;;;;;;;171.10;162.20;;;4.90;99.90;;;;;;4749576;30;20422;-62
2022/12/06 12:53:37;;;;;;;176.23;167.07;;;4.80;99.90;;;;;;4744624;30;20407;-62
2022/12/06 12:56:13;;;;;;;176.60;167.55;;;4.80;99.90;;;;;;4752493;30;20417;-61
2022/12/06 12:58:40;;;;;;;181.60;172.32;;;4.90;99.90;;;;;;4753992;30;20466;-61
2022/12/06 13:01:37;;;;;;;201.52;191.27;;;5.00;99.90;;;;;;4738851;30;20411;-62
2022/12/06 13:04:11;;;;;;;182.07;172.95;;;5.10;99.90;;;;;;4753384;30;20537;-62